createdAt,value
2022-11-25T00:01:33.062Z,99083.60
2022-11-25T00:04:01.016Z,99095.00
2022-11-25T00:06:33.954Z,99090.80
2022-11-25T00:09:10.822Z,99090.00
2022-11-25T00:11:41.322Z,99087.60
2022-11-25T00:14:14.589Z,99083.20
2022-11-25T00:16:47.722Z,99081.40
2022-11-25T00:19:16.599Z,99084.00
2022-11-25T00:21:44.412Z,99078.40
2022-11-25T00:24:14.426Z,99082.40
2022-11-25T00:26:42.139Z,99081.80
2022-11-25T00:29:10.879Z,99084.20
2022-11-25T00:31:39.725Z,99082.20
2022-11-25T00:34:11.063Z,99084.20
2022-11-25T00:36:39.023Z,99082.00
2022-11-25T00:39:15.200Z,99077.00
2022-11-25T00:42:02.989Z,99083.80
2022-11-25T00:44:41.695Z,99081.80
2022-11-25T00:47:18.347Z,99085.00
2022-11-25T00:49:49.105Z,99086.80
2022-11-25T00:52:25.385Z,99089.40
2022-11-25T00:54:53.680Z,99093.20
2022-11-25T00:57:23.136Z,99093.00
2022-11-25T00:59:51.022Z,99091.80
2022-11-25T01:02:22.470Z,99085.20
2022-11-25T01:04:50.340Z,99082.00
2022-11-25T01:07:18.530Z,99088.80
2022-11-25T01:09:47.547Z,99084.00
2022-11-25T01:12:15.349Z,99081.80
2022-11-25T01:14:43.066Z,99088.80
2022-11-25T01:17:10.930Z,99088.60
2022-11-25T01:19:40.605Z,99088.80
2022-11-25T01:22:09.128Z,99090.00
2022-11-25T01:24:37.086Z,99102.20
2022-11-25T01:27:05.206Z,99098.80
2022-11-25T01:29:33.040Z,99098.40
2022-11-25T01:32:00.893Z,99100.80
2022-11-25T01:34:32.057Z,99095.00
2022-11-25T01:36:59.932Z,99092.80
2022-11-25T01:39:32.438Z,99096.80
2022-11-25T01:42:02.122Z,99099.20
2022-11-25T01:44:31.922Z,99104.00
2022-11-25T01:47:23.597Z,99114.40
2022-11-25T01:50:04.331Z,99111.40
2022-11-25T01:52:35.617Z,99114.00
2022-11-25T01:55:11.752Z,99114.60
2022-11-25T01:57:45.940Z,99113.60
2022-11-25T02:00:14.219Z,99116.80
2022-11-25T02:02:46.539Z,99119.40
2022-11-25T02:05:18.420Z,99120.20
2022-11-25T02:07:47.161Z,99122.00
2022-11-25T02:10:18.715Z,99122.00
2022-11-25T02:12:47.010Z,99119.60
2022-11-25T02:15:14.925Z,99127.40
2022-11-25T02:17:43.236Z,99128.20
2022-11-25T02:20:16.363Z,99136.00
2022-11-25T02:22:56.308Z,99138.40
2022-11-25T02:25:27.031Z,99140.80
2022-11-25T02:28:01.522Z,99137.60
2022-11-25T02:30:29.375Z,99135.60
2022-11-25T02:32:58.442Z,99133.00
2022-11-25T02:35:50.618Z,99130.00
2022-11-25T02:38:53.689Z,99132.40
2022-11-25T02:41:32.271Z,99141.20
2022-11-25T02:44:02.513Z,99138.40
2022-11-25T02:46:30.564Z,99145.00
2022-11-25T02:49:14.532Z,99139.20
2022-11-25T02:51:45.009Z,99132.00
2022-11-25T02:54:13.865Z,99138.80
2022-11-25T02:56:41.798Z,99140.40
2022-11-25T02:59:09.911Z,99139.00
2022-11-25T03:01:38.630Z,99138.40
2022-11-25T03:04:08.038Z,99138.60
2022-11-25T03:06:36.463Z,99141.80
2022-11-25T03:09:04.334Z,99147.00
2022-11-25T03:11:51.034Z,99145.00
2022-11-25T03:14:19.541Z,99144.80
2022-11-25T03:16:47.423Z,99146.20
2022-11-25T03:19:15.712Z,99141.00
2022-11-25T03:21:43.370Z,99141.00
2022-11-25T03:24:11.106Z,99142.60
2022-11-25T03:26:38.940Z,99143.00
2022-11-25T03:29:07.679Z,99143.00
2022-11-25T03:31:36.065Z,99147.40
2022-11-25T03:34:04.009Z,99145.60
2022-11-25T03:36:31.887Z,99143.20
2022-11-25T03:38:59.702Z,99141.60
2022-11-25T03:41:27.709Z,99134.60
2022-11-25T03:43:55.649Z,99140.40
2022-11-25T03:46:24.131Z,99140.60
2022-11-25T03:48:52.773Z,99143.60
2022-11-25T03:51:20.769Z,99145.60
2022-11-25T03:53:49.556Z,99144.40
2022-11-25T03:56:17.612Z,99140.40
2022-11-25T03:58:45.375Z,99142.20
2022-11-25T04:01:13.772Z,99142.00
2022-11-25T04:03:41.617Z,99139.00
2022-11-25T04:06:09.461Z,99142.20
2022-11-25T04:08:37.653Z,99142.80
2022-11-25T04:11:06.135Z,99144.20
2022-11-25T04:13:36.172Z,99144.20
2022-11-25T04:16:03.953Z,99137.40
2022-11-25T04:18:31.805Z,99146.40
2022-11-25T04:20:59.645Z,99151.00
2022-11-25T04:23:27.530Z,99150.40
2022-11-25T04:26:02.330Z,99155.20
2022-11-25T04:28:38.613Z,99159.40
2022-11-25T04:31:08.327Z,99160.80
2022-11-25T04:33:38.548Z,99163.00
2022-11-25T04:36:07.602Z,99168.60
2022-11-25T04:38:36.244Z,99164.00
2022-11-25T04:41:05.698Z,99166.00
2022-11-25T04:43:37.106Z,99169.20
2022-11-25T04:46:15.281Z,99172.20
2022-11-25T04:48:46.301Z,99171.20
2022-11-25T04:51:15.307Z,99172.00
2022-11-25T04:53:44.211Z,99180.80
2022-11-25T04:56:17.677Z,99177.60
2022-11-25T04:59:04.909Z,99179.80
2022-11-25T05:01:37.213Z,99179.20
2022-11-25T05:04:12.774Z,99187.60
2022-11-25T05:06:40.606Z,99180.80
2022-11-25T05:09:11.049Z,99186.40
2022-11-25T05:11:39.332Z,99186.40
2022-11-25T05:14:07.164Z,99190.60
2022-11-25T05:16:35.497Z,99194.60
2022-11-25T05:19:04.142Z,99193.00
2022-11-25T05:21:32.933Z,99190.40
2022-11-25T05:24:00.888Z,99189.80
2022-11-25T05:26:29.959Z,99188.60
2022-11-25T05:29:00.408Z,99191.80
2022-11-25T05:31:29.991Z,99192.00
2022-11-25T05:34:02.209Z,99196.60
2022-11-25T05:36:31.093Z,99198.80
2022-11-25T05:38:59.111Z,99205.20
2022-11-25T05:41:36.230Z,99208.00
2022-11-25T05:44:05.422Z,99204.80
2022-11-25T05:46:34.769Z,99210.60
2022-11-25T05:49:03.300Z,99213.20
2022-11-25T05:51:31.438Z,99225.60
2022-11-25T05:54:00.378Z,99222.00
2022-11-25T05:56:29.947Z,99226.20
2022-11-25T05:59:23.507Z,99229.80
2022-11-25T06:02:06.021Z,99226.80
2022-11-25T06:04:34.508Z,99237.00
2022-11-25T06:07:03.628Z,99239.00
2022-11-25T06:09:31.861Z,99237.40
2022-11-25T06:11:59.947Z,99240.60
2022-11-25T06:14:28.337Z,99241.00
2022-11-25T06:16:56.450Z,99243.80
2022-11-25T06:19:37.925Z,99249.40
2022-11-25T06:22:05.681Z,99258.20
2022-11-25T06:24:33.744Z,99253.40
2022-11-25T06:27:05.414Z,99264.40
2022-11-25T06:29:35.720Z,99260.20
2022-11-25T06:32:03.904Z,99264.80
2022-11-25T06:34:42.917Z,99268.00
2022-11-25T06:37:37.243Z,99269.60
2022-11-25T06:40:06.114Z,99271.80
2022-11-25T06:42:34.085Z,99273.60
2022-11-25T06:45:02.144Z,99273.40
2022-11-25T06:47:30.014Z,99270.00
2022-11-25T06:49:57.924Z,99268.80
2022-11-25T06:52:25.805Z,99268.80
2022-11-25T06:54:53.863Z,99271.40
2022-11-25T06:57:21.906Z,99271.40
2022-11-25T06:59:49.720Z,99267.80
2022-11-25T07:02:17.467Z,99267.20
2022-11-25T07:04:45.493Z,99267.80
2022-11-25T07:07:13.409Z,99272.40
2022-11-25T07:09:41.258Z,99271.60
2022-11-25T07:12:09.086Z,99270.80
2022-11-25T07:14:37.046Z,99278.20
2022-11-25T07:17:11.590Z,99278.00
2022-11-25T07:19:40.550Z,99278.00
2022-11-25T07:22:08.329Z,99281.20
2022-11-25T07:24:36.318Z,99279.20
2022-11-25T07:27:06.575Z,99281.00
2022-11-25T07:29:54.521Z,99282.40
2022-11-25T07:32:24.033Z,99288.20
2022-11-25T07:34:51.942Z,99283.60
2022-11-25T07:37:19.688Z,99289.00
2022-11-25T07:39:47.460Z,99292.60
2022-11-25T07:42:15.343Z,99289.80
2022-11-25T07:44:43.085Z,99290.40
2022-11-25T07:47:27.673Z,99291.00
2022-11-25T07:49:55.583Z,99287.80
2022-11-25T07:52:23.825Z,99284.00
2022-11-25T07:54:52.901Z,99288.40
2022-11-25T07:57:21.030Z,99287.00
2022-11-25T07:59:48.960Z,99286.60
2022-11-25T08:02:16.795Z,99291.40
2022-11-25T08:04:44.716Z,99294.80
2022-11-25T08:07:12.504Z,99297.80
2022-11-25T08:09:40.687Z,99294.00
2022-11-25T08:12:08.410Z,99298.00
2022-11-25T08:14:36.421Z,99296.40
2022-11-25T08:17:06.094Z,99294.20
2022-11-25T08:19:34.094Z,99304.00
2022-11-25T08:22:02.012Z,99305.40
2022-11-25T08:24:29.781Z,99301.20
2022-11-25T08:27:01.408Z,99304.00
2022-11-25T08:29:29.299Z,99305.00
2022-11-25T08:31:57.421Z,99303.80
2022-11-25T08:34:25.273Z,99303.20
2022-11-25T08:36:55.665Z,99305.00
2022-11-25T08:42:11.336Z,99306.80
2022-11-25T08:44:39.293Z,99313.40
2022-11-25T08:47:07.082Z,99315.20
2022-11-25T08:49:40.576Z,99313.20
2022-11-25T08:52:09.801Z,99319.40
2022-11-25T08:54:37.819Z,99319.60
2022-11-25T08:57:05.802Z,99319.00
2022-11-25T08:59:33.669Z,99322.40
2022-11-25T09:02:02.262Z,99320.40
2022-11-25T09:04:30.237Z,99326.20
2022-11-25T09:06:58.079Z,99331.40
2022-11-25T09:09:26.144Z,99331.40
2022-11-25T09:11:54.027Z,99334.20
2022-11-25T09:14:22.337Z,99326.20
2022-11-25T09:16:50.386Z,99328.80
2022-11-25T09:19:19.487Z,99327.40
2022-11-25T09:21:47.253Z,99327.20
2022-11-25T09:24:14.964Z,99326.40
2022-11-25T09:26:45.169Z,99331.00
2022-11-25T09:29:13.679Z,99330.20
2022-11-25T09:31:41.720Z,99329.00
2022-11-25T09:34:10.026Z,99333.40
2022-11-25T09:36:38.022Z,99336.60
2022-11-25T09:39:05.980Z,99336.80
2022-11-25T09:42:18.732Z,99337.00
2022-11-25T09:45:39.153Z,99338.80
2022-11-25T09:48:26.334Z,99331.80
2022-11-25T09:51:05.179Z,99325.60
2022-11-25T09:53:44.222Z,99332.40
2022-11-25T09:56:41.305Z,99328.80
2022-11-25T09:59:26.047Z,99336.00
2022-11-25T10:01:58.893Z,99333.80
2022-11-25T10:04:49.303Z,99332.20
2022-11-25T10:07:33.237Z,99333.20
2022-11-25T10:10:01.917Z,99331.20
2022-11-25T10:12:37.703Z,99332.00
2022-11-25T10:15:19.160Z,99335.60
2022-11-25T10:17:56.124Z,99336.00
2022-11-25T10:20:35.855Z,99340.00
2022-11-25T10:23:28.316Z,99339.20
2022-11-25T10:26:00.906Z,99339.80
2022-11-25T10:28:33.134Z,99339.40
2022-11-25T10:31:05.809Z,99338.00
2022-11-25T10:33:41.968Z,99337.60
2022-11-25T10:36:34.197Z,99337.80
2022-11-25T10:39:24.674Z,99331.60
2022-11-25T10:42:01.850Z,99337.00
2022-11-25T10:44:37.710Z,99339.60
2022-11-25T10:47:45.720Z,99337.20
2022-11-25T10:50:48.383Z,99335.80
2022-11-25T10:53:20.725Z,99340.60
2022-11-25T10:56:10.839Z,99337.00
2022-11-25T10:58:40.230Z,99342.40
2022-11-25T11:01:17.823Z,99346.20
2022-11-25T11:03:51.491Z,99340.20
2022-11-25T11:06:41.367Z,99339.80
2022-11-25T11:09:40.887Z,99344.80
2022-11-25T11:12:28.662Z,99343.40
2022-11-25T11:15:19.762Z,99336.40
2022-11-25T11:17:48.492Z,99334.60
2022-11-25T11:20:30.554Z,99337.20
2022-11-25T11:23:09.444Z,99339.60
2022-11-25T11:25:39.258Z,99335.60
2022-11-25T11:28:36.214Z,99341.00
2022-11-25T11:31:15.546Z,99340.20
2022-11-25T11:33:48.393Z,99344.60
2022-11-25T11:36:35.199Z,99348.20
2022-11-25T11:39:47.879Z,99349.60
2022-11-25T11:42:32.903Z,99348.80
2022-11-25T11:45:30.052Z,99342.00
2022-11-25T11:48:16.988Z,99345.60
2022-11-25T11:50:50.796Z,99356.00
2022-11-25T11:53:45.559Z,99355.00
2022-11-25T11:56:37.307Z,99356.00
2022-11-25T11:59:46.955Z,99358.80
2022-11-25T12:02:40.888Z,99356.80
2022-11-25T12:05:18.738Z,99345.20
2022-11-25T12:08:11.419Z,99352.80
2022-11-25T12:10:49.086Z,99355.00
2022-11-25T12:13:19.574Z,99356.60
2022-11-25T12:16:19.852Z,99353.20
2022-11-25T12:18:53.076Z,99356.40
2022-11-25T12:21:45.420Z,99358.80
2022-11-25T12:25:00.438Z,99359.20
2022-11-25T12:27:40.998Z,99363.40
2022-11-25T12:30:14.350Z,99363.00
2022-11-25T12:33:21.296Z,99366.20
2022-11-25T12:36:06.829Z,99371.60
2022-11-25T12:38:55.300Z,99372.20
2022-11-25T12:41:43.704Z,99365.60
2022-11-25T12:44:30.412Z,99368.80
2022-11-25T12:46:58.284Z,99364.00
2022-11-25T12:49:28.556Z,99369.40
2022-11-25T12:52:25.192Z,99369.40
2022-11-25T12:55:11.638Z,99370.20
2022-11-25T12:58:38.783Z,99370.20
2022-11-25T13:01:26.165Z,99372.80
2022-11-25T13:04:39.711Z,99372.40
2022-11-25T13:07:39.258Z,99375.40
2022-11-25T13:10:26.065Z,99368.20
2022-11-25T13:13:18.263Z,99375.60
2022-11-25T13:15:48.652Z,99377.60
2022-11-25T13:18:24.211Z,99382.60
2022-11-25T13:20:53.423Z,99379.00
2022-11-25T13:23:26.758Z,99380.80
2022-11-25T13:26:29.895Z,99376.40
2022-11-25T13:28:59.705Z,99380.60
2022-11-25T13:31:34.194Z,99382.60
2022-11-25T13:34:22.970Z,99383.20
2022-11-25T13:36:53.014Z,99386.80
2022-11-25T13:39:23.856Z,99392.80
2022-11-25T13:42:21.626Z,99386.20
2022-11-25T13:44:51.674Z,99386.60
2022-11-25T13:47:48.308Z,99388.60
2022-11-25T13:50:21.695Z,99392.40
2022-11-25T13:53:26.026Z,99393.80
2022-11-25T13:55:55.848Z,99389.60
2022-11-25T13:58:29.512Z,99390.00
2022-11-25T14:01:04.128Z,99389.80
2022-11-25T14:03:31.918Z,99385.40
2022-11-25T14:06:30.265Z,99390.60
2022-11-25T14:09:15.869Z,99386.00
2022-11-25T14:12:09.062Z,99384.80
2022-11-25T14:15:14.562Z,99394.20
2022-11-25T14:18:24.454Z,99404.00
2022-11-25T14:21:24.847Z,99406.40
2022-11-25T14:24:19.026Z,99408.60
2022-11-25T14:26:50.683Z,99405.60
2022-11-25T14:29:32.607Z,99406.00
2022-11-25T14:32:20.952Z,99403.40
2022-11-25T14:35:14.034Z,99408.00
2022-11-25T14:38:12.367Z,99410.20
2022-11-25T14:40:58.577Z,99408.20
2022-11-25T14:43:26.826Z,99407.40
2022-11-25T14:46:22.419Z,99411.80
2022-11-25T14:48:58.980Z,99415.20
2022-11-25T14:51:37.794Z,99424.40
2022-11-25T14:54:09.952Z,99423.00
2022-11-25T14:56:37.970Z,99427.00
2022-11-25T14:59:08.496Z,99426.40
2022-11-25T15:01:38.001Z,99423.80
2022-11-25T15:04:24.570Z,99426.80
2022-11-25T15:06:57.001Z,99423.20
2022-11-25T15:09:30.589Z,99423.20
2022-11-25T15:12:06.963Z,99423.40
2022-11-25T15:14:37.480Z,99421.20
2022-11-25T15:17:10.247Z,99420.80
2022-11-25T15:19:38.205Z,99430.40
2022-11-25T15:22:23.943Z,99431.20
2022-11-25T15:24:56.020Z,99428.20
2022-11-25T15:27:48.926Z,99424.00
2022-11-25T15:30:22.805Z,99421.00
2022-11-25T15:32:50.617Z,99425.60
2022-11-25T15:35:21.487Z,99429.60
2022-11-25T15:37:49.687Z,99432.40
2022-11-25T15:40:38.059Z,99426.40
2022-11-25T15:43:08.415Z,99432.40
2022-11-25T15:45:46.624Z,99437.80
2022-11-25T15:48:38.217Z,99430.00
2022-11-25T15:51:14.268Z,99432.80
2022-11-25T15:53:42.290Z,99439.00
2022-11-25T15:56:10.774Z,99434.40
2022-11-25T15:58:42.376Z,99428.60
2022-11-25T16:01:19.820Z,99427.80
2022-11-25T16:03:50.096Z,99424.40
2022-11-25T16:06:28.337Z,99426.20
2022-11-25T16:08:58.518Z,99425.00
2022-11-25T16:11:30.426Z,99425.00
2022-11-25T16:14:26.511Z,99422.20
2022-11-25T16:17:11.147Z,99426.20
2022-11-25T16:19:44.735Z,99427.00
2022-11-25T16:22:18.800Z,99426.00
2022-11-25T16:24:50.720Z,99427.60
2022-11-25T16:27:24.769Z,99430.20
2022-11-25T16:30:19.653Z,99428.60
2022-11-25T16:32:47.616Z,99430.20
2022-11-25T16:35:22.292Z,99430.80
2022-11-25T16:37:50.258Z,99432.00
2022-11-25T16:40:18.598Z,99423.20
2022-11-25T16:42:47.279Z,99435.00
2022-11-25T16:45:24.911Z,99438.60
2022-11-25T16:47:53.241Z,99440.60
2022-11-25T16:50:21.315Z,99446.60
2022-11-25T16:52:50.116Z,99443.20
2022-11-25T16:55:18.712Z,99445.20
2022-11-25T16:57:46.648Z,99449.60
2022-11-25T17:00:17.042Z,99449.80
2022-11-25T17:02:45.332Z,99447.60
2022-11-25T17:05:18.877Z,99456.60
2022-11-25T17:07:47.762Z,99449.80
2022-11-25T17:10:16.536Z,99449.60
2022-11-25T17:12:45.331Z,99454.20
2022-11-25T17:15:18.828Z,99450.60
2022-11-25T17:17:47.885Z,99458.00
2022-11-25T17:20:21.855Z,99455.60
2022-11-25T17:22:50.124Z,99461.80
2022-11-25T17:25:18.375Z,99468.40
2022-11-25T17:27:46.817Z,99469.20
2022-11-25T17:30:22.415Z,99475.20
2022-11-25T17:33:01.392Z,99468.20
2022-11-25T17:35:29.201Z,99464.40
2022-11-25T17:37:59.622Z,99468.60
2022-11-25T17:40:27.431Z,99467.00
2022-11-25T17:42:58.053Z,99468.20
2022-11-25T17:45:25.873Z,99463.20
2022-11-25T17:47:53.642Z,99464.20
2022-11-25T17:50:25.847Z,99469.60
2022-11-25T17:52:53.674Z,99465.40
2022-11-25T17:55:22.892Z,99469.80
2022-11-25T17:57:50.898Z,99467.80
2022-11-25T18:00:21.562Z,99473.20
2022-11-25T18:02:50.040Z,99473.80
2022-11-25T18:05:21.476Z,99466.40
2022-11-25T18:07:49.645Z,99468.60
2022-11-25T18:10:24.222Z,99468.20
2022-11-25T18:12:53.461Z,99470.20
2022-11-25T18:15:24.009Z,99480.20
2022-11-25T18:17:53.988Z,99478.60
2022-11-25T18:20:24.775Z,99473.00
2022-11-25T18:22:53.137Z,99476.20
2022-11-25T18:25:27.960Z,99477.20
2022-11-25T18:27:56.527Z,99476.80
2022-11-25T18:30:30.384Z,99481.20
2022-11-25T18:32:58.578Z,99476.40
2022-11-25T18:35:35.454Z,99481.60
2022-11-25T18:38:04.919Z,99487.40
2022-11-25T18:40:32.789Z,99493.80
2022-11-25T18:43:01.773Z,99495.60
2022-11-25T18:45:36.733Z,99500.40
2022-11-25T18:48:18.972Z,99499.00
2022-11-25T18:50:47.706Z,99503.80
2022-11-25T18:53:15.551Z,99500.60
2022-11-25T18:55:44.079Z,99507.40
2022-11-25T18:58:27.044Z,99501.80
2022-11-25T19:01:02.641Z,99504.00
2022-11-25T19:03:30.836Z,99498.20
2022-11-25T19:06:00.856Z,99499.20
2022-11-25T19:08:29.995Z,99506.80
2022-11-25T19:10:58.075Z,99502.20
2022-11-25T19:13:34.746Z,99502.80
2022-11-25T19:16:12.545Z,99500.00
2022-11-25T19:18:40.789Z,99508.80
2022-11-25T19:21:14.727Z,99504.00
2022-11-25T19:23:42.794Z,99501.60
2022-11-25T19:26:16.611Z,99502.80
2022-11-25T19:28:46.815Z,99508.20
2022-11-25T19:31:15.115Z,99516.00
2022-11-25T19:33:44.423Z,99519.60
2022-11-25T19:36:24.096Z,99516.20
2022-11-25T19:38:52.218Z,99518.20
2022-11-25T19:41:20.368Z,99520.20
2022-11-25T19:43:48.682Z,99517.60
2022-11-25T19:46:46.169Z,99519.60
2022-11-25T19:49:20.039Z,99522.20
2022-11-25T19:51:49.019Z,99519.40
2022-11-25T19:54:18.623Z,99521.80
2022-11-25T19:56:46.481Z,99525.80
2022-11-25T19:59:14.553Z,99534.60
2022-11-25T20:01:44.902Z,99535.40
2022-11-25T20:04:20.615Z,99537.60
2022-11-25T20:06:48.668Z,99547.60
2022-11-25T20:09:16.569Z,99549.60
2022-11-25T20:11:44.342Z,99551.20
2022-11-25T20:14:12.819Z,99552.00
2022-11-25T20:16:40.867Z,99554.20
2022-11-25T20:19:16.265Z,99560.20
2022-11-25T20:21:46.572Z,99561.40
2022-11-25T20:24:18.700Z,99561.40
2022-11-25T20:26:49.058Z,99561.20
2022-11-25T20:29:24.708Z,99562.60
2022-11-25T20:31:56.907Z,99569.60
2022-11-25T20:34:25.239Z,99573.80
2022-11-25T20:36:53.398Z,99578.60
2022-11-25T20:39:21.596Z,99578.40
2022-11-25T20:41:49.913Z,99578.00
2022-11-25T20:44:17.829Z,99579.40
2022-11-25T20:46:45.993Z,99582.20
2022-11-25T20:49:29.210Z,99581.40
2022-11-25T20:51:57.199Z,99585.20
2022-11-25T20:54:25.261Z,99584.20
2022-11-25T20:56:53.471Z,99586.00
2022-11-25T20:59:23.627Z,99589.40
2022-11-25T21:01:52.795Z,99589.20
2022-11-25T21:04:22.163Z,99590.00
2022-11-25T21:06:50.331Z,99588.60
2022-11-25T21:09:23.301Z,99588.20
2022-11-25T21:11:53.738Z,99589.00
2022-11-25T21:14:24.324Z,99588.00
2022-11-25T21:16:52.851Z,99590.80
2022-11-25T21:19:20.904Z,99592.60
2022-11-25T21:21:49.669Z,99594.40
2022-11-25T21:24:33.135Z,99593.00
2022-11-25T21:27:04.182Z,99588.80
2022-11-25T21:29:32.154Z,99588.80
2022-11-25T21:32:00.056Z,99588.80
2022-11-25T21:34:28.134Z,99591.20
2022-11-25T21:36:56.371Z,99600.20
2022-11-25T21:39:29.274Z,99595.60
2022-11-25T21:42:05.810Z,99599.60
2022-11-25T21:44:40.192Z,99603.00
2022-11-25T21:47:23.146Z,99605.80
2022-11-25T21:49:51.135Z,99605.20
2022-11-25T21:52:19.329Z,99611.40
2022-11-25T21:54:47.317Z,99612.20
2022-11-25T21:57:22.910Z,99613.40
2022-11-25T21:59:50.821Z,99613.60
2022-11-25T22:02:21.596Z,99612.80
2022-11-25T22:04:49.886Z,99613.00
2022-11-25T22:07:18.016Z,99615.20
2022-11-25T22:09:46.227Z,99614.20
2022-11-25T22:12:29.936Z,99618.80
2022-11-25T22:14:58.737Z,99617.40
2022-11-25T22:17:26.805Z,99625.20
2022-11-25T22:19:54.708Z,99624.40
2022-11-25T22:22:22.866Z,99626.00
2022-11-25T22:24:51.165Z,99626.40
2022-11-25T22:27:28.358Z,99629.40
2022-11-25T22:29:56.188Z,99628.60
2022-11-25T22:32:24.169Z,99626.60
2022-11-25T22:34:52.056Z,99631.40
2022-11-25T22:37:22.668Z,99628.20
2022-11-25T22:39:50.495Z,99632.00
2022-11-25T22:42:36.816Z,99636.80
2022-11-25T22:45:07.262Z,99635.40
2022-11-25T22:47:39.516Z,99638.00
2022-11-25T22:50:21.922Z,99639.00
2022-11-25T22:52:51.521Z,99635.60
2022-11-25T22:55:31.374Z,99634.20
2022-11-25T22:58:00.865Z,99634.40
2022-11-25T23:00:45.343Z,99632.80
2022-11-25T23:03:29.252Z,99635.80
2022-11-25T23:05:57.253Z,99642.20
2022-11-25T23:08:28.243Z,99638.40
2022-11-25T23:10:56.567Z,99638.00
2022-11-25T23:13:24.516Z,99642.80
2022-11-25T23:15:57.275Z,99645.60
2022-11-25T23:18:38.623Z,99640.80
2022-11-25T23:21:07.721Z,99648.20
2022-11-25T23:23:35.770Z,99643.00
2022-11-25T23:26:03.541Z,99641.00
2022-11-25T23:28:31.484Z,99631.00
2022-11-25T23:30:59.275Z,99640.80
2022-11-25T23:33:41.690Z,99642.40
2022-11-25T23:36:10.457Z,99648.40
2022-11-25T23:38:57.047Z,99650.40
2022-11-25T23:41:30.426Z,99652.60
2022-11-25T23:44:02.919Z,99658.00
2022-11-25T23:46:33.802Z,99662.60
2022-11-25T23:49:02.947Z,99669.00
2022-11-25T23:51:30.678Z,99666.20
2022-11-25T23:53:58.480Z,99657.00
2022-11-25T23:56:27.675Z,99661.00
2022-11-25T23:58:55.643Z,99665.40
